sensor_id;sensor_type;location;lat;lon;timestamp;pressure;altitude;pressure_sealevel;temperature;humidity
22389;BME280;11362;48.102;11.620;2023-07-16T00:01:55;95009.22;;;26.77;44.23
22389;BME280;11362;48.102;11.620;2023-07-16T00:04:21;95012.81;;;26.78;44.74
22389;BME280;11362;48.102;11.620;2023-07-16T00:06:46;95020.38;;;26.77;44.59
22389;BME280;11362;48.102;11.620;2023-07-16T00:09:12;95020.38;;;26.77;44.45
22389;BME280;11362;48.102;11.620;2023-07-16T00:11:37;95026.72;;;26.78;44.41
22389;BME280;11362;48.102;11.620;2023-07-16T00:14:02;95027.97;;;26.77;44.77
22389;BME280;11362;48.102;11.620;2023-07-16T00:16:28;95029.94;;;26.76;44.69
22389;BME280;11362;48.102;11.620;2023-07-16T00:18:53;95031.50;;;26.77;44.91
22389;BME280;11362;48.102;11.620;2023-07-16T00:21:19;95034.31;;;26.77;44.88
22389;BME280;11362;48.102;11.620;2023-07-16T00:23:44;95044.22;;;26.78;44.81
22389;BME280;11362;48.102;11.620;2023-07-16T00:26:09;95034.31;;;26.77;44.86
22389;BME280;11362;48.102;11.620;2023-07-16T00:28:35;95048.22;;;26.77;44.99
22389;BME280;11362;48.102;11.620;2023-07-16T00:31:00;95048.22;;;26.77;44.71
22389;BME280;11362;48.102;11.620;2023-07-16T00:33:26;95040.31;;;26.76;45.10
22389;BME280;11362;48.102;11.620;2023-07-16T00:35:51;95043.88;;;26.76;44.84
22389;BME280;11362;48.102;11.620;2023-07-16T00:38:19;95057.03;;;26.76;44.93
22389;BME280;11362;48.102;11.620;2023-07-16T00:40:46;95069.75;;;26.77;44.79
22389;BME280;11362;48.102;11.620;2023-07-16T00:43:11;95070.53;;;26.77;44.83
22389;BME280;11362;48.102;11.620;2023-07-16T00:45:38;95078.88;;;26.77;44.82
22389;BME280;11362;48.102;11.620;2023-07-16T00:48:05;95087.25;;;26.77;45.12
22389;BME280;11362;48.102;11.620;2023-07-16T00:50:31;95097.63;;;26.77;44.88
22389;BME280;11362;48.102;11.620;2023-07-16T00:52:57;95116.34;;;26.76;44.82
22389;BME280;11362;48.102;11.620;2023-07-16T00:55:22;95142.97;;;26.77;44.71
22389;BME280;11362;48.102;11.620;2023-07-16T00:57:48;95166.06;;;26.78;45.04
22389;BME280;11362;48.102;11.620;2023-07-16T01:00:13;95176.44;;;26.77;45.41
22389;BME280;11362;48.102;11.620;2023-07-16T01:02:38;95184.03;;;26.77;45.10
22389;BME280;11362;48.102;11.620;2023-07-16T01:05:04;95198.72;;;26.77;45.11
22389;BME280;11362;48.102;11.620;2023-07-16T01:07:30;95203.53;;;26.77;45.44
22389;BME280;11362;48.102;11.620;2023-07-16T01:09:56;95216.66;;;26.76;45.55
22389;BME280;11362;48.102;11.620;2023-07-16T01:12:23;95236.97;;;26.77;45.25
22389;BME280;11362;48.102;11.620;2023-07-16T01:14:50;95237.75;;;26.77;45.46
22389;BME280;11362;48.102;11.620;2023-07-16T01:17:16;95248.13;;;26.77;45.30
22389;BME280;11362;48.102;11.620;2023-07-16T01:19:41;95254.47;;;26.77;45.73
22389;BME280;11362;48.102;11.620;2023-07-16T01:27:30;95243.75;;;26.76;45.79
22389;BME280;11362;48.102;11.620;2023-07-16T01:30:03;95259.69;;;26.75;45.78
22389;BME280;11362;48.102;11.620;2023-07-16T01:32:30;95269.63;;;26.76;46.00
22389;BME280;11362;48.102;11.620;2023-07-16T01:34:57;95265.28;;;26.75;45.63
22389;BME280;11362;48.102;11.620;2023-07-16T01:37:22;95274.41;;;26.76;45.69
22389;BME280;11362;48.102;11.620;2023-07-16T01:39:48;95263.72;;;26.74;45.85
22389;BME280;11362;48.102;11.620;2023-07-16T01:42:14;95276.41;;;26.75;45.96
22389;BME280;11362;48.102;11.620;2023-07-16T01:44:39;95269.28;;;26.74;46.07
22389;BME280;11362;48.102;11.620;2023-07-16T01:47:21;95272.06;;;26.74;45.94
22389;BME280;11362;48.102;11.620;2023-07-16T01:49:49;95272.06;;;26.74;46.09
22389;BME280;11362;48.102;11.620;2023-07-16T01:52:14;95279.63;;;26.74;46.09
22389;BME280;11362;48.102;11.620;2023-07-16T01:54:39;95278.88;;;26.73;46.44
22389;BME280;11362;48.102;11.620;2023-07-16T01:57:05;95283.66;;;26.73;46.42
22389;BME280;11362;48.102;11.620;2023-07-16T01:59:30;95281.66;;;26.73;46.45
22389;BME280;11362;48.102;11.620;2023-07-16T02:01:55;95279.28;;;26.72;46.52
22389;BME280;11362;48.102;11.620;2023-07-16T02:04:21;95293.56;;;26.74;46.35
22389;BME280;11362;48.102;11.620;2023-07-16T02:06:46;95293.56;;;26.74;46.61
22389;BME280;11362;48.102;11.620;2023-07-16T02:09:12;95286.44;;;26.73;46.62
22389;BME280;11362;48.102;11.620;2023-07-16T02:11:37;95291.56;;;26.74;46.21
22389;BME280;11362;48.102;11.620;2023-07-16T02:14:02;95290.03;;;26.73;46.55
22389;BME280;11362;48.102;11.620;2023-07-16T02:16:27;95295.22;;;26.71;46.58
22389;BME280;11362;48.102;11.620;2023-07-16T02:18:53;95300.38;;;26.73;46.64
22389;BME280;11362;48.102;11.620;2023-07-16T02:21:18;95317.09;;;26.73;46.28
22389;BME280;11362;48.102;11.620;2023-07-16T02:23:43;95305.94;;;26.73;46.37
22389;BME280;11362;48.102;11.620;2023-07-16T02:26:09;95300.38;;;26.73;46.39
22389;BME280;11362;48.102;11.620;2023-07-16T02:28:34;95291.22;;;26.72;46.44
22389;BME280;11362;48.102;11.620;2023-07-16T02:30:59;95296.78;;;26.72;46.40
22389;BME280;11362;48.102;11.620;2023-07-16T02:33:25;95291.22;;;26.72;46.48
22389;BME280;11362;48.102;11.620;2023-07-16T02:35:50;95291.22;;;26.72;46.78
22389;BME280;11362;48.102;11.620;2023-07-16T02:38:15;95295.22;;;26.71;46.64
22389;BME280;11362;48.102;11.620;2023-07-16T02:40:45;95295.22;;;26.71;46.74
22389;BME280;11362;48.102;11.620;2023-07-16T02:43:11;95315.53;;;26.72;46.37
22389;BME280;11362;48.102;11.620;2023-07-16T02:45:36;95321.88;;;26.72;46.77
22389;BME280;11362;48.102;11.620;2023-07-16T02:48:02;95320.66;;;26.73;46.83
22389;BME280;11362;48.102;11.620;2023-07-16T02:50:27;95323.09;;;26.71;46.83
22389;BME280;11362;48.102;11.620;2023-07-16T02:52:53;95327.44;;;26.72;46.62
22389;BME280;11362;48.102;11.620;2023-07-16T02:55:18;95333.00;;;26.72;46.64
22389;BME280;11362;48.102;11.620;2023-07-16T02:57:43;95330.22;;;26.72;46.83
22389;BME280;11362;48.102;11.620;2023-07-16T03:00:09;95331.03;;;26.73;46.90
22389;BME280;11362;48.102;11.620;2023-07-16T03:02:34;95327.91;;;26.71;46.92
22389;BME280;11362;48.102;11.620;2023-07-16T03:05:00;95330.22;;;26.72;46.55
22389;BME280;11362;48.102;11.620;2023-07-16T03:07:25;95331.81;;;26.73;46.95
22389;BME280;11362;48.102;11.620;2023-07-16T03:09:50;95337.41;;;26.73;46.54
22389;BME280;11362;48.102;11.620;2023-07-16T03:12:15;95331.81;;;26.73;46.93
22389;BME280;11362;48.102;11.620;2023-07-16T03:14:41;95340.59;;;26.72;46.78
22389;BME280;11362;48.102;11.620;2023-07-16T03:17:06;95348.53;;;26.73;46.67
22389;BME280;11362;48.102;11.620;2023-07-16T03:19:32;95336.59;;;26.73;46.97
22389;BME280;11362;48.102;11.620;2023-07-16T03:21:57;95333.81;;;26.73;46.93
22389;BME280;11362;48.102;11.620;2023-07-16T03:24:23;95342.97;;;26.73;46.62
22389;BME280;11362;48.102;11.620;2023-07-16T03:26:48;95342.97;;;26.73;46.97
22389;BME280;11362;48.102;11.620;2023-07-16T03:29:13;95346.94;;;26.72;47.00
22389;BME280;11362;48.102;11.620;2023-07-16T03:31:39;95337.41;;;26.73;46.59
22389;BME280;11362;48.102;11.620;2023-07-16T03:34:04;95346.94;;;26.72;46.65
22389;BME280;11362;48.102;11.620;2023-07-16T03:36:29;95348.53;;;26.73;46.91
22389;BME280;11362;48.102;11.620;2023-07-16T03:38:54;95352.53;;;26.72;46.81
22389;BME280;11362;48.102;11.620;2023-07-16T03:41:20;95365.25;;;26.73;46.64
22389;BME280;11362;48.102;11.620;2023-07-16T03:43:45;95365.25;;;26.73;46.73
22389;BME280;11362;48.102;11.620;2023-07-16T03:46:10;95364.47;;;26.73;46.64
22389;BME280;11362;48.102;11.620;2023-07-16T03:48:36;95370.84;;;26.73;46.63
22389;BME280;11362;48.102;11.620;2023-07-16T03:51:01;95370.03;;;26.73;46.70
22389;BME280;11362;48.102;11.620;2023-07-16T03:53:26;95370.84;;;26.73;46.86
22389;BME280;11362;48.102;11.620;2023-07-16T03:55:52;95370.03;;;26.73;46.85
22389;BME280;11362;48.102;11.620;2023-07-16T03:58:17;95370.03;;;26.73;46.90
22389;BME280;11362;48.102;11.620;2023-07-16T04:00:42;95365.69;;;26.72;46.67
22389;BME280;11362;48.102;11.620;2023-07-16T04:03:08;95369.25;;;26.72;46.85
22389;BME280;11362;48.102;11.620;2023-07-16T04:05:33;95373.25;;;26.71;46.60
22389;BME280;11362;48.102;11.620;2023-07-16T04:07:58;95374.06;;;26.72;46.94
22389;BME280;11362;48.102;11.620;2023-07-16T04:10:24;95372.47;;;26.71;46.74
22389;BME280;11362;48.102;11.620;2023-07-16T04:12:51;95382.84;;;26.70;46.68
22389;BME280;11362;48.102;11.620;2023-07-16T04:15:16;95380.03;;;26.70;46.85
22389;BME280;11362;48.102;11.620;2023-07-16T04:17:41;95390.78;;;26.72;46.77
22389;BME280;11362;48.102;11.620;2023-07-16T04:20:07;95392.41;;;26.69;46.98
22389;BME280;11362;48.102;11.620;2023-07-16T04:22:34;95412.25;;;26.71;46.90
22389;BME280;11362;48.102;11.620;2023-07-16T04:24:59;95419.06;;;26.70;47.00
22389;BME280;11362;48.102;11.620;2023-07-16T04:27:25;95421.84;;;26.70;46.95
22389;BME280;11362;48.102;11.620;2023-07-16T04:29:50;95430.22;;;26.70;46.82
22389;BME280;11362;48.102;11.620;2023-07-16T04:32:15;95432.22;;;26.70;46.84
22389;BME280;11362;48.102;11.620;2023-07-16T04:34:41;95432.22;;;26.70;47.30
22389;BME280;11362;48.102;11.620;2023-07-16T04:37:06;95435.00;;;26.70;47.33
22389;BME280;11362;48.102;11.620;2023-07-16T04:39:31;95434.22;;;26.69;47.23
22389;BME280;11362;48.102;11.620;2023-07-16T04:41:56;95435.44;;;26.68;47.27
22389;BME280;11362;48.102;11.620;2023-07-16T04:44:22;95439.00;;;26.69;47.50
22389;BME280;11362;48.102;11.620;2023-07-16T04:46:47;95429.88;;;26.68;47.38
22389;BME280;11362;48.102;11.620;2023-07-16T04:49:12;95437.00;;;26.69;47.41
22389;BME280;11362;48.102;11.620;2023-07-16T04:51:38;95436.22;;;26.69;47.41
22389;BME280;11362;48.102;11.620;2023-07-16T04:54:03;95441.78;;;26.69;47.53
22389;BME280;11362;48.102;11.620;2023-07-16T04:56:28;95448.16;;;26.69;47.62
22389;BME280;11362;48.102;11.620;2023-07-16T04:58:53;95455.72;;;26.69;47.44
22389;BME280;11362;48.102;11.620;2023-07-16T05:01:19;95442.56;;;26.69;47.74
22389;BME280;11362;48.102;11.620;2023-07-16T05:03:44;95459.66;;;26.71;47.43
22389;BME280;11362;48.102;11.620;2023-07-16T05:06:09;95458.50;;;26.69;47.50
22389;BME280;11362;48.102;11.620;2023-07-16T05:08:34;95445.78;;;26.68;47.43
22389;BME280;11362;48.102;11.620;2023-07-16T05:11:01;95439.44;;;26.67;47.52
22389;BME280;11362;48.102;11.620;2023-07-16T05:13:26;95435.78;;;26.70;47.42
22389;BME280;11362;48.102;11.620;2023-07-16T05:15:51;95435.44;;;26.68;47.77
22389;BME280;11362;48.102;11.620;2023-07-16T05:18:17;95430.22;;;26.70;47.56
22389;BME280;11362;48.102;11.620;2023-07-16T05:20:42;95432.22;;;26.70;47.71
22389;BME280;11362;48.102;11.620;2023-07-16T05:23:09;95431.78;;;26.71;47.72
22389;BME280;11362;48.102;11.620;2023-07-16T05:25:35;95434.56;;;26.71;47.38
22389;BME280;11362;48.102;11.620;2023-07-16T05:28:00;95429.00;;;26.71;47.54
22389;BME280;11362;48.102;11.620;2023-07-16T05:30:25;95441.34;;;26.70;47.88
22389;BME280;11362;48.102;11.620;2023-07-16T05:32:50;95440.94;;;26.72;47.84
22389;BME280;11362;48.102;11.620;2023-07-16T05:35:16;95440.13;;;26.71;47.89
22389;BME280;11362;48.102;11.620;2023-07-16T05:37:41;95436.56;;;26.71;47.68
22389;BME280;11362;48.102;11.620;2023-07-16T05:40:07;95442.91;;;26.71;47.70
22389;BME280;11362;48.102;11.620;2023-07-16T05:42:32;95447.28;;;26.72;47.93
22389;BME280;11362;48.102;11.620;2023-07-16T05:44:58;95455.22;;;26.74;48.18
22389;BME280;11362;48.102;11.620;2023-07-16T05:47:23;95463.56;;;26.74;48.12
22389;BME280;11362;48.102;11.620;2023-07-16T05:49:48;95454.06;;;26.71;48.73
22389;BME280;11362;48.102;11.620;2023-07-16T05:52:14;95461.22;;;26.72;48.38
22389;BME280;11362;48.102;11.620;2023-07-16T05:54:39;95476.28;;;26.75;48.20
22389;BME280;11362;48.102;11.620;2023-07-16T05:57:04;95475.50;;;26.74;48.42
22389;BME280;11362;48.102;11.620;2023-07-16T05:59:30;95481.09;;;26.74;48.16
22389;BME280;11362;48.102;11.620;2023-07-16T06:01:55;95490.22;;;26.75;48.40
22389;BME280;11362;48.102;11.620;2023-07-16T06:04:21;95483.88;;;26.74;48.29
22389;BME280;11362;48.102;11.620;2023-07-16T06:06:46;95483.41;;;26.76;48.30
22389;BME280;11362;48.102;11.620;2023-07-16T06:09:12;95481.44;;;26.76;48.51
22389;BME280;11362;48.102;11.620;2023-07-16T06:11:37;95476.19;;;26.78;48.79
22389;BME280;11362;48.102;11.620;2023-07-16T06:14:02;95480.56;;;26.79;48.38
22389;BME280;11362;48.102;11.620;2023-07-16T06:16:28;95477.00;;;26.79;48.86
22389;BME280;11362;48.102;11.620;2023-07-16T06:18:53;95485.72;;;26.81;49.39
22389;BME280;11362;48.102;11.620;2023-07-16T06:21:19;95487.72;;;26.80;49.66
22389;BME280;11362;48.102;11.620;2023-07-16T06:23:44;95494.06;;;26.81;49.68
22389;BME280;11362;48.102;11.620;2023-07-16T06:26:09;95502.78;;;26.83;48.94
22389;BME280;11362;48.102;11.620;2023-07-16T06:28:34;95502.78;;;26.83;49.43
22389;BME280;11362;48.102;11.620;2023-07-16T06:31:00;95503.56;;;26.83;50.29
22389;BME280;11362;48.102;11.620;2023-07-16T06:33:25;95508.72;;;26.85;49.81
22389;BME280;11362;48.102;11.620;2023-07-16T06:35:50;95505.94;;;26.85;50.12
22389;BME280;11362;48.102;11.620;2023-07-16T06:38:16;95503.91;;;26.85;50.31
22389;BME280;11362;48.102;11.620;2023-07-16T06:40:49;95509.50;;;26.85;50.55
22389;BME280;11362;48.102;11.620;2023-07-16T06:43:15;95511.94;;;26.83;50.59
22389;BME280;11362;48.102;11.620;2023-07-16T06:45:42;95506.47;;;26.60;51.90
22389;BME280;11362;48.102;11.620;2023-07-16T06:48:07;95509.88;;;26.48;52.02
22389;BME280;11362;48.102;11.620;2023-07-16T06:50:33;95506.47;;;26.60;51.78
22389;BME280;11362;48.102;11.620;2023-07-16T06:52:58;95507.56;;;26.66;51.67
22389;BME280;11362;48.102;11.620;2023-07-16T06:55:24;95500.59;;;26.74;51.64
22389;BME280;11362;48.102;11.620;2023-07-16T06:57:49;95508.09;;;26.77;51.40
22389;BME280;11362;48.102;11.620;2023-07-16T07:00:15;95508.81;;;26.81;50.94
22389;BME280;11362;48.102;11.620;2023-07-16T07:02:40;95511.22;;;26.79;51.23
22389;BME280;11362;48.102;11.620;2023-07-16T07:05:06;95497.28;;;26.79;51.48
22389;BME280;11362;48.102;11.620;2023-07-16T07:07:31;95510.88;;;26.77;51.63
22389;BME280;11362;48.102;11.620;2023-07-16T07:09:57;95513.38;;;26.72;51.67
22389;BME280;11362;48.102;11.620;2023-07-16T07:12:23;95517.75;;;26.73;51.66
22389;BME280;11362;48.102;11.620;2023-07-16T07:14:48;95512.97;;;26.73;51.63
22389;BME280;11362;48.102;11.620;2023-07-16T07:17:14;95517.47;;;26.67;52.35
22389;BME280;11362;48.102;11.620;2023-07-16T07:19:41;95510.50;;;26.59;52.41
22389;BME280;11362;48.102;11.620;2023-07-16T07:22:06;95521.78;;;26.52;52.05
22389;BME280;11362;48.102;11.620;2023-07-16T07:24:32;95519.00;;;26.52;52.22
22389;BME280;11362;48.102;11.620;2023-07-16T07:26:58;95514.69;;;26.48;51.89
22389;BME280;11362;48.102;11.620;2023-07-16T07:29:24;95517.81;;;26.50;51.46
22389;BME280;11362;48.102;11.620;2023-07-16T07:31:50;95515.38;;;26.52;51.75
22389;BME280;11362;48.102;11.620;2023-07-16T07:34:15;95517.78;;;26.53;51.90
22389;BME280;11362;48.102;11.620;2023-07-16T07:36:41;95516.97;;;26.53;51.86
22389;BME280;11362;48.102;11.620;2023-07-16T07:39:07;95509.03;;;26.51;51.59
22389;BME280;11362;48.102;11.620;2023-07-16T07:41:32;95513.03;;;26.50;51.84
22389;BME280;11362;48.102;11.620;2023-07-16T07:43:58;95514.63;;;26.51;51.77
22389;BME280;11362;48.102;11.620;2023-07-16T07:46:23;95505.06;;;26.52;51.24
22389;BME280;11362;48.102;11.620;2023-07-16T07:48:48;95505.84;;;26.53;51.37
22389;BME280;11362;48.102;11.620;2023-07-16T07:51:14;95512.25;;;26.50;50.67
22389;BME280;11362;48.102;11.620;2023-07-16T07:53:39;95510.75;;;26.45;50.92
22389;BME280;11362;48.102;11.620;2023-07-16T07:56:05;95502.91;;;26.40;50.81
22389;BME280;11362;48.102;11.620;2023-07-16T07:58:31;95502.19;;;26.36;49.97
22389;BME280;11362;48.102;11.620;2023-07-16T08:00:56;95506.78;;;26.27;49.60
22389;BME280;11362;48.102;11.620;2023-07-16T08:03:22;95505.91;;;26.10;48.94
22389;BME280;11362;48.102;11.620;2023-07-16T08:05:49;95503.06;;;25.94;48.99
22389;BME280;11362;48.102;11.620;2023-07-16T08:08:14;95502.91;;;26.01;48.97
22389;BME280;11362;48.102;11.620;2023-07-16T08:10:41;95497.34;;;26.01;48.89
22389;BME280;11362;48.102;11.620;2023-07-16T08:13:07;95500.75;;;25.89;49.43
22389;BME280;11362;48.102;11.620;2023-07-16T08:15:33;95503.81;;;25.95;49.33
22389;BME280;11362;48.102;11.620;2023-07-16T08:17:58;95490.91;;;26.04;48.76
22389;BME280;11362;48.102;11.620;2023-07-16T08:20:23;95492.81;;;26.07;49.05
22389;BME280;11362;48.102;11.620;2023-07-16T08:22:49;95486.41;;;26.10;48.85
22389;BME280;11362;48.102;11.620;2023-07-16T08:25:15;95473.66;;;26.13;48.56
22389;BME280;11362;48.102;11.620;2023-07-16T08:27:40;95477.50;;;26.19;48.37
22389;BME280;11362;48.102;11.620;2023-07-16T08:30:06;95489.69;;;26.25;48.31
22389;BME280;11362;48.102;11.620;2023-07-16T08:32:31;95484.84;;;26.29;48.26
22389;BME280;11362;48.102;11.620;2023-07-16T08:34:57;95483.19;;;26.31;47.84
22389;BME280;11362;48.102;11.620;2023-07-16T08:37:22;95477.56;;;26.35;47.77
22389;BME280;11362;48.102;11.620;2023-07-16T08:39:52;95481.63;;;26.30;47.77
22389;BME280;11362;48.102;11.620;2023-07-16T08:42:18;95478.13;;;26.26;47.27
22389;BME280;11362;48.102;11.620;2023-07-16T08:44:44;95476.91;;;26.27;47.72
22389;BME280;11362;48.102;11.620;2023-07-16T08:47:10;95482.34;;;26.34;47.52
22389;BME280;11362;48.102;11.620;2023-07-16T08:49:35;95474.31;;;26.36;47.24
22389;BME280;11362;48.102;11.620;2023-07-16T08:52:02;95473.13;;;26.37;47.19
22389;BME280;11362;48.102;11.620;2023-07-16T08:54:28;95460.78;;;26.38;47.47
22389;BME280;11362;48.102;11.620;2023-07-16T08:56:53;95469.56;;;26.37;47.46
22389;BME280;11362;48.102;11.620;2023-07-16T08:59:20;95478.31;;;26.35;46.77
22389;BME280;11362;48.102;11.620;2023-07-16T09:01:47;95486.75;;;26.32;46.60
22389;BME280;11362;48.102;11.620;2023-07-16T09:04:13;95475.69;;;26.28;46.65
22389;BME280;11362;48.102;11.620;2023-07-16T09:06:38;95477.25;;;26.29;46.67
22389;BME280;11362;48.102;11.620;2023-07-16T09:09:04;95480.75;;;26.33;46.30
22389;BME280;11362;48.102;11.620;2023-07-16T09:11:29;95477.47;;;26.38;46.32
22389;BME280;11362;48.102;11.620;2023-07-16T09:13:55;95474.16;;;26.43;46.67
22389;BME280;11362;48.102;11.620;2023-07-16T09:16:20;95463.03;;;26.43;46.62
22389;BME280;11362;48.102;11.620;2023-07-16T09:18:46;95453.03;;;26.46;46.71
22389;BME280;11362;48.102;11.620;2023-07-16T09:21:12;95448.59;;;26.48;46.86
22389;BME280;11362;48.102;11.620;2023-07-16T09:23:38;95458.53;;;26.49;47.21
22389;BME280;11362;48.102;11.620;2023-07-16T09:26:03;95458.53;;;26.49;47.09
22389;BME280;11362;48.102;11.620;2023-07-16T09:28:32;95460.09;;;26.50;47.03
22389;BME280;11362;48.102;11.620;2023-07-16T09:31:07;95449.41;;;26.49;47.30
22389;BME280;11362;48.102;11.620;2023-07-16T09:33:33;95443.78;;;26.52;46.92
22389;BME280;11362;48.102;11.620;2023-07-16T09:35:58;95436.63;;;26.51;47.22
22389;BME280;11362;48.102;11.620;2023-07-16T09:38:24;95445.41;;;26.50;47.32
22389;BME280;11362;48.102;11.620;2023-07-16T09:40:49;95446.91;;;26.54;47.00
22389;BME280;11362;48.102;11.620;2023-07-16T09:43:16;95434.19;;;26.53;47.18
22389;BME280;11362;48.102;11.620;2023-07-16T09:45:42;95428.25;;;26.51;46.91
22389;BME280;11362;48.102;11.620;2023-07-16T09:48:08;95431.03;;;26.51;46.73
22389;BME280;11362;48.102;11.620;2023-07-16T09:50:34;95420.28;;;26.53;46.60
22389;BME280;11362;48.102;11.620;2023-07-16T09:53:01;95430.19;;;26.54;46.77
22389;BME280;11362;48.102;11.620;2023-07-16T09:55:27;95423.06;;;26.53;46.42
22389;BME280;11362;48.102;11.620;2023-07-16T09:57:56;95421.03;;;26.54;46.70
22389;BME280;11362;48.102;11.620;2023-07-16T10:00:24;95412.69;;;26.54;46.70
22389;BME280;11362;48.102;11.620;2023-07-16T10:02:51;95420.28;;;26.53;46.46
22389;BME280;11362;48.102;11.620;2023-07-16T10:05:19;95423.81;;;26.54;46.21
22389;BME280;11362;48.102;11.620;2023-07-16T10:07:53;95419.03;;;26.54;45.96
22389;BME280;11362;48.102;11.620;2023-07-16T10:10:19;95411.03;;;26.56;45.90
22389;BME280;11362;48.102;11.620;2023-07-16T10:13:03;95422.97;;;26.57;46.27
22389;BME280;11362;48.102;11.620;2023-07-16T10:15:29;95424.13;;;26.59;46.19
22389;BME280;11362;48.102;11.620;2023-07-16T10:17:55;95423.66;;;26.61;46.38
22389;BME280;11362;48.102;11.620;2023-07-16T10:20:29;95422.88;;;26.60;46.15
22389;BME280;11362;48.102;11.620;2023-07-16T10:22:55;95419.66;;;26.62;46.35
22389;BME280;11362;48.102;11.620;2023-07-16T10:27:47;95419.75;;;26.58;46.03
22389;BME280;11362;48.102;11.620;2023-07-16T10:30:13;95417.47;;;26.53;45.50
22389;BME280;11362;48.102;11.620;2023-07-16T10:32:39;95423.19;;;26.46;45.04
22389;BME280;11362;48.102;11.620;2023-07-16T10:35:05;95424.81;;;26.44;45.58
22389;BME280;11362;48.102;11.620;2023-07-16T10:37:32;95417.28;;;26.44;44.81
22389;BME280;11362;48.102;11.620;2023-07-16T10:39:58;95416.38;;;26.47;44.98
22389;BME280;11362;48.102;11.620;2023-07-16T10:42:26;95405.16;;;26.51;45.13
22389;BME280;11362;48.102;11.620;2023-07-16T10:45:00;95401.16;;;26.52;45.12
22389;BME280;11362;48.102;11.620;2023-07-16T10:47:37;95406.34;;;26.53;45.17
22389;BME280;11362;48.102;11.620;2023-07-16T10:50:04;95401.81;;;26.59;44.96
22389;BME280;11362;48.102;11.620;2023-07-16T10:52:31;95403.72;;;26.62;44.91
22389;BME280;11362;48.102;11.620;2023-07-16T10:54:56;95410.09;;;26.63;45.46
22389;BME280;11362;48.102;11.620;2023-07-16T10:57:22;95402.94;;;26.62;44.75
22389;BME280;11362;48.102;11.620;2023-07-16T10:59:47;95399.13;;;26.56;44.36
22389;BME280;11362;48.102;11.620;2023-07-16T11:02:14;95397.09;;;26.56;44.76
22389;BME280;11362;48.102;11.620;2023-07-16T11:04:42;95394.94;;;26.64;44.72
22389;BME280;11362;48.102;11.620;2023-07-16T11:07:10;95395.28;;;26.66;44.79
22389;BME280;11362;48.102;11.620;2023-07-16T11:09:44;95400.53;;;26.64;44.85
22389;BME280;11362;48.102;11.620;2023-07-16T11:12:11;95396.50;;;26.65;44.42
22389;BME280;11362;48.102;11.620;2023-07-16T11:14:37;95387.91;;;26.59;44.71
22389;BME280;11362;48.102;11.620;2023-07-16T11:17:04;95385.38;;;26.65;45.27
22389;BME280;11362;48.102;11.620;2023-07-16T11:19:30;95388.25;;;26.61;44.75
22389;BME280;11362;48.102;11.620;2023-07-16T11:21:56;95388.06;;;26.52;44.65
22389;BME280;11362;48.102;11.620;2023-07-16T11:24:22;95377.72;;;26.49;44.33
22389;BME280;11362;48.102;11.620;2023-07-16T11:26:51;95377.25;;;26.54;44.42
22389;BME280;11362;48.102;11.620;2023-07-16T11:29:16;95372.97;;;26.50;44.43
22389;BME280;11362;48.102;11.620;2023-07-16T11:31:42;95367.38;;;26.50;44.12
22389;BME280;11362;48.102;11.620;2023-07-16T11:34:07;95373.47;;;26.45;44.33
22389;BME280;11362;48.102;11.620;2023-07-16T11:36:33;95360.34;;;26.45;44.43
22389;BME280;11362;48.102;11.620;2023-07-16T11:38:59;95361.97;;;26.43;44.16
22389;BME280;11362;48.102;11.620;2023-07-16T11:41:24;95372.09;;;26.53;44.42
22389;BME280;11362;48.102;11.620;2023-07-16T11:43:50;95372.66;;;26.64;44.86
22389;BME280;11362;48.102;11.620;2023-07-16T11:46:17;95377.19;;;26.74;44.93
22389;BME280;11362;48.102;11.620;2023-07-16T11:48:42;95374.47;;;26.70;44.91
22389;BME280;11362;48.102;11.620;2023-07-16T11:51:08;95358.97;;;26.69;44.96
22389;BME280;11362;48.102;11.620;2023-07-16T11:53:33;95361.25;;;26.74;44.97
22389;BME280;11362;48.102;11.620;2023-07-16T11:55:59;95358.00;;;26.76;45.07
22389;BME280;11362;48.102;11.620;2023-07-16T11:58:24;95350.09;;;26.74;45.34
22389;BME280;11362;48.102;11.620;2023-07-16T12:00:50;95350.09;;;26.74;45.65
22389;BME280;11362;48.102;11.620;2023-07-16T12:03:15;95350.88;;;26.75;45.81
22389;BME280;11362;48.102;11.620;2023-07-16T12:05:41;95350.97;;;26.71;44.67
22389;BME280;11362;48.102;11.620;2023-07-16T12:08:07;95349.72;;;26.72;45.14
22389;BME280;11362;48.102;11.620;2023-07-16T12:10:33;95343.81;;;26.70;44.75
22389;BME280;11362;48.102;11.620;2023-07-16T12:12:58;95348.00;;;26.62;44.64
22389;BME280;11362;48.102;11.620;2023-07-16T12:15:24;95345.22;;;26.62;44.90
22389;BME280;11362;48.102;11.620;2023-07-16T12:17:49;95348.00;;;26.62;45.04
22389;BME280;11362;48.102;11.620;2023-07-16T12:20:15;95338.41;;;26.63;45.22
22389;BME280;11362;48.102;11.620;2023-07-16T12:22:41;95345.47;;;26.68;45.36
22389;BME280;11362;48.102;11.620;2023-07-16T12:25:06;95343.16;;;26.66;45.11
22389;BME280;11362;48.102;11.620;2023-07-16T12:27:32;95338.41;;;26.63;44.96
22389;BME280;11362;48.102;11.620;2023-07-16T12:29:57;95336.53;;;26.60;45.09
22389;BME280;11362;48.102;11.620;2023-07-16T12:32:23;95334.50;;;26.61;45.58
22389;BME280;11362;48.102;11.620;2023-07-16T12:34:48;95336.19;;;26.58;45.77
22389;BME280;11362;48.102;11.620;2023-07-16T12:37:14;95342.09;;;26.60;45.67
22389;BME280;11362;48.102;11.620;2023-07-16T12:39:39;95339.66;;;26.62;46.41
22389;BME280;11362;48.102;11.620;2023-07-16T12:42:05;95342.09;;;26.60;45.83
22389;BME280;11362;48.102;11.620;2023-07-16T12:44:30;95334.59;;;26.57;46.01
22389;BME280;11362;48.102;11.620;2023-07-16T12:46:56;95336.84;;;26.62;46.23
22389;BME280;11362;48.102;11.620;2023-07-16T12:49:21;95333.03;;;26.56;45.73
22389;BME280;11362;48.102;11.620;2023-07-16T12:51:47;95331.13;;;26.53;45.52